Time,TemperatureF,DewpointF,PressureIn,WindDirection,WindDirectionDegrees,WindSpeedMPH,WindSpeedGustMPH,Humidity,HourlyPrecipIn,Conditions,Clouds,dailyrainin,SolarRadiationWatts/m^2,SoftwareType,DateUTC
2013-06-14 00:00:00,48.8,43.2,29.78,SE,129,0.0,0.0,81,0.00,SCT,OVC,0.00,0.0,WeatherDisplay:10.37,2013-06-13 23:00:00,
2013-06-14 00:05:00,48.5,43.3,29.78,SE,129,0.0,0.0,82,0.00,BKN,OVC,0.00,0.0,WeatherDisplay:10.37,2013-06-13 23:05:00,
2013-06-14 00:10:00,48.2,43.0,29.78,SE,129,0.0,0.0,82,0.00,BKN,OVC,0.00,0.0,WeatherDisplay:10.37,2013-06-13 23:10:00,
2013-06-14 00:15:00,47.7,42.5,29.78,SE,129,0.0,0.0,82,0.00,BKN,OVC,0.00,0.0,WeatherDisplay:10.37,2013-06-13 23:15:00,
2013-06-14 00:20:00,47.5,42.6,29.78,SE,129,0.0,0.0,83,0.00,BKN,OVC,0.00,0.0,WeatherDisplay:10.37,2013-06-13 23:20:00,
2013-06-14 00:25:00,47.2,42.6,29.79,SE,129,0.0,0.0,84,0.00,BKN,OVC,0.00,0.0,WeatherDisplay:10.37,2013-06-13 23:25:00,
2013-06-14 00:30:00,47.2,42.9,29.79,SE,129,0.0,0.0,85,0.00,BKN,OVC,0.00,0.0,WeatherDisplay:10.37,2013-06-13 23:30:00,
2013-06-14 00:35:00,47.2,43.2,29.79,SE,129,0.0,0.0,86,0.00,BKN,OVC,0.00,0.0,WeatherDisplay:10.37,2013-06-13 23:35:00,
2013-06-14 00:40:00,47.2,43.5,29.79,SE,129,0.0,0.0,87,0.00,BKN,OVC,0.00,0.0,WeatherDisplay:10.37,2013-06-13 23:40:00,
2013-06-14 00:45:00,47.3,43.6,29.79,SE,129,1.2,0.0,87,0.00,BKN,OVC,0.00,0.0,WeatherDisplay:10.37,2013-06-13 23:45:00,
2013-06-14 00:50:00,47.5,44.1,29.79,ESE,121,0.0,0.0,88,0.00,BKN,OVC,0.00,0.0,WeatherDisplay:10.37,2013-06-13 23:50:00,
2013-06-14 00:55:00,48.0,44.3,29.79,ESE,121,1.2,0.0,87,0.00,BKN,OVC,0.00,0.0,WeatherDisplay:10.37,2013-06-13 23:55:00,
2013-06-14 01:00:00,48.3,44.3,29.79,SE,124,1.2,1.2,86,0.00,BKN,OVC,0.00,0.0,WeatherDisplay:10.37,2013-06-14 00:00:00,
2013-06-14 01:05:00,48.4,44.4,29.79,ESE,117,2.3,2.3,86,0.00,CLR,OVC,0.00,0.0,WeatherDisplay:10.37,2013-06-14 00:05:00,
2013-06-14 01:10:00,48.5,44.5,29.79,SSE,150,0.0,0.0,86,0.00,CLR,OVC,0.00,0.0,WeatherDisplay:10.37,2013-06-14 00:10:00,
2013-06-14 01:15:00,48.7,44.7,29.79,SE,129,1.2,0.0,86,0.00,CLR,OVC,0.00,0.0,WeatherDisplay:10.37,2013-06-14 00:15:00,
2013-06-14 01:20:00,48.7,44.7,29.80,ESE,121,1.2,1.2,86,0.00,CLR,OVC,0.00,0.0,WeatherDisplay:10.37,2013-06-14 00:20:00,
2013-06-14 01:25:00,48.7,44.7,29.80,ESE,121,0.0,0.0,86,0.00,CLR,OVC,0.00,0.0,WeatherDisplay:10.37,2013-06-14 00:25:00,
2013-06-14 01:30:00,48.8,44.8,29.80,ESE,121,0.0,0.0,86,0.00,CLR,OVC,0.00,0.0,WeatherDisplay:10.37,2013-06-14 00:30:00,
2013-06-14 01:35:00,49.0,45.0,29.80,ESE,117,1.2,1.2,86,0.00,CLR,OVC,0.00,0.0,WeatherDisplay:10.37,2013-06-14 00:35:00,
2013-06-14 01:40:00,49.3,45.3,29.80,SE,136,1.2,1.2,86,0.00,CLR,OVC,0.00,0.0,WeatherDisplay:10.37,2013-06-14 00:40:00,
2013-06-14 01:45:00,49.5,45.2,29.80,ESE,119,1.2,0.0,85,0.00,CLR,OVC,0.00,0.0,WeatherDisplay:10.37,2013-06-14 00:45:00,
2013-06-14 01:50:00,49.5,45.2,29.80,SE,134,1.2,1.2,85,0.00,CLR,OVC,0.00,0.0,WeatherDisplay:10.37,2013-06-14 00:50:00,
2013-06-14 01:55:00,49.4,45.1,29.80,SE,134,0.0,0.0,85,0.00,CLR,OVC,0.00,0.0,WeatherDisplay:10.37,2013-06-14 00:55:00,
2013-06-14 02:00:00,49.2,45.2,29.80,ESE,121,1.2,1.2,86,0.00,CLR,OVC,0.00,0.0,WeatherDisplay:10.37,2013-06-14 01:00:00,
2013-06-14 02:05:00,49.1,45.1,29.80,SE,137,0.0,0.0,86,0.00,CLR,OVC,0.00,0.0,WeatherDisplay:10.37,2013-06-14 01:05:00,
2013-06-14 02:10:00,49.0,45.0,29.80,SE,137,1.2,1.2,86,0.00,CLR,OVC,0.00,0.0,WeatherDisplay:10.37,2013-06-14 01:10:00,
2013-06-14 02:15:00,48.9,44.9,29.80,SE,138,1.2,1.2,86,0.00,CLR,OVC,0.00,0.0,WeatherDisplay:10.37,2013-06-14 01:15:00,
2013-06-14 02:20:00,48.8,45.1,29.79,ESE,110,1.2,1.2,87,0.00,CLR,OVC,0.00,0.0,WeatherDisplay:10.37,2013-06-14 01:20:00,
2013-06-14 02:25:00,48.7,45.0,29.80,ESE,116,0.0,0.0,87,0.00,CLR,OVC,0.00,0.0,WeatherDisplay:10.37,2013-06-14 01:25:00,
2013-06-14 02:30:00,48.5,44.5,29.79,ESE,115,0.0,0.0,86,0.00,CLR,OVC,0.00,0.0,WeatherDisplay:10.37,2013-06-14 01:30:00,
2013-06-14 02:35:00,48.3,44.3,29.79,ESE,116,0.0,0.0,86,0.00,CLR,OVC,0.00,0.0,WeatherDisplay:10.37,2013-06-14 01:35:00,
2013-06-14 02:40:00,47.8,43.8,29.80,ESE,116,0.0,0.0,86,0.00,CLR,OVC,0.00,0.0,WeatherDisplay:10.37,2013-06-14 01:40:00,
2013-06-14 02:45:00,47.4,43.4,29.80,ESE,115,0.0,0.0,86,0.00,CLR,OVC,0.00,0.0,WeatherDisplay:10.37,2013-06-14 01:45:00,
2013-06-14 02:50:00,47.0,43.3,29.80,ESE,116,0.0,0.0,87,0.00,CLR,OVC,0.00,0.0,WeatherDisplay:10.37,2013-06-14 01:50:00,
2013-06-14 02:55:00,46.7,43.0,29.80,ESE,115,0.0,0.0,87,0.00,CLR,OVC,0.00,0.0,WeatherDisplay:10.37,2013-06-14 01:55:00,
2013-06-14 03:00:00,46.3,42.6,29.80,ESE,115,0.0,0.0,87,0.00,CLR,OVC,0.00,0.0,WeatherDisplay:10.37,2013-06-14 02:00:00,
2013-06-14 03:05:00,46.1,42.7,29.80,ESE,115,0.0,0.0,88,0.00,CLR,OVC,0.00,0.0,WeatherDisplay:10.37,2013-06-14 02:05:00,
2013-06-14 03:10:00,45.9,42.5,29.80,ESE,115,0.0,0.0,88,0.00,CLR,OVC,0.00,0.0,WeatherDisplay:10.37,2013-06-14 02:10:00,
2013-06-14 03:15:00,45.7,42.6,29.79,ESE,116,0.0,0.0,89,0.00,CLR,OVC,0.00,0.0,WeatherDisplay:10.37,2013-06-14 02:15:00,
2013-06-14 03:20:00,45.4,42.3,29.80,ESE,115,0.0,0.0,89,0.00,CLR,OVC,0.00,0.0,WeatherDisplay:10.37,2013-06-14 02:20:00,
2013-06-14 03:25:00,45.2,42.2,29.80,ESE,115,0.0,0.0,89,0.00,CLR,OVC,0.00,0.0,WeatherDisplay:10.37,2013-06-14 02:25:00,
2013-06-14 03:30:00,44.9,41.9,29.80,ESE,115,0.0,0.0,89,0.00,CLR,OVC,0.00,0.0,WeatherDisplay:10.37,2013-06-14 02:30:00,
2013-06-14 03:35:00,44.5,41.5,29.79,ESE,115,0.0,0.0,89,0.00,CLR,OVC,0.00,0.0,WeatherDisplay:10.37,2013-06-14 02:35:00,
2013-06-14 03:40:00,44.5,41.7,29.79,ESE,115,0.0,0.0,90,0.00,CLR,OVC,0.00,0.0,WeatherDisplay:10.37,2013-06-14 02:40:00,
2013-06-14 03:45:00,45.1,42.9,29.79,ESE,115,0.0,0.0,92,0.00,CLR,OVC,0.00,0.0,WeatherDisplay:10.37,2013-06-14 02:45:00,
2013-06-14 03:50:00,45.8,43.6,29.79,SSE,163,0.0,0.0,92,0.00,CLR,OVC,0.00,0.0,WeatherDisplay:10.37,2013-06-14 02:50:00,
2013-06-14 03:55:00,46.3,44.1,29.79,SE,143,1.2,0.0,92,0.00,CLR,OVC,0.00,0.0,WeatherDisplay:10.37,2013-06-14 02:55:00,
2013-06-14 04:00:00,46.8,44.3,29.79,SE,136,1.2,1.2,91,0.00,CLR,OVC,0.00,0.0,WeatherDisplay:10.37,2013-06-14 03:00:00,
2013-06-14 04:05:00,47.1,44.6,29.79,ESE,118,1.2,0.0,91,0.00,CLR,OVC,0.00,0.0,WeatherDisplay:10.37,2013-06-14 03:05:00,
2013-06-14 04:10:00,47.2,44.4,29.80,SE,142,0.0,0.0,90,0.00,CLR,OVC,0.00,0.0,WeatherDisplay:10.37,2013-06-14 03:10:00,
2013-06-14 04:15:00,47.3,44.5,29.80,SE,136,1.2,0.0,90,0.00,CLR,OVC,0.00,0.0,WeatherDisplay:10.37,2013-06-14 03:15:00,
2013-06-14 04:20:00,47.5,44.7,29.80,SE,124,0.0,0.0,90,0.00,CLR,OVC,0.00,0.0,WeatherDisplay:10.37,2013-06-14 03:20:00,
2013-06-14 04:25:00,47.6,44.8,29.80,SE,124,0.0,0.0,90,0.00,CLR,OVC,0.00,0.0,WeatherDisplay:10.37,2013-06-14 03:25:00,
2013-06-14 04:30:00,47.8,45.0,29.80,SE,124,1.2,1.2,90,0.00,CLR,OVC,0.00,0.0,WeatherDisplay:10.37,2013-06-14 03:30:00,
2013-06-14 04:35:00,48.0,45.2,29.80,SE,136,3.0,3.0,90,0.00,CLR,OVC,0.00,0.0,WeatherDisplay:10.37,2013-06-14 03:35:00,
2013-06-14 04:40:00,48.2,45.1,29.80,SE,143,1.2,1.2,89,0.00,CLR,OVC,0.00,0.0,WeatherDisplay:10.37,2013-06-14 03:40:00,
2013-06-14 04:45:00,48.2,45.1,29.80,SE,139,0.0,0.0,89,0.00,CLR,OVC,0.00,0.0,WeatherDisplay:10.37,2013-06-14 03:45:00,
2013-06-14 04:50:00,48.0,44.6,29.80,SE,139,0.0,0.0,88,0.00,CLR,OVC,0.00,0.0,WeatherDisplay:10.37,2013-06-14 03:50:00,
2013-06-14 04:55:00,47.8,44.7,29.80,SE,139,0.0,0.0,89,0.00,CLR,OVC,0.00,0.0,WeatherDisplay:10.37,2013-06-14 03:55:00,
2013-06-14 05:00:00,47.8,44.7,29.80,SSE,150,0.0,0.0,89,0.00,CLR,OVC,0.00,0.0,WeatherDisplay:10.37,2013-06-14 04:00:00,
2013-06-14 05:01:00,47.8,44.7,29.80,SSE,150,0.0,0.0,89,0.00,OVC,,0.00,0.0,WeatherDisplay:10.37,2013-06-14 04:01:00,
2013-06-14 05:06:00,47.6,44.5,29.80,SSE,150,0.0,0.0,89,0.00,OVC,,0.00,0.0,WeatherDisplay:10.37,2013-06-14 04:06:00,
2013-06-14 05:11:00,47.5,44.4,29.80,SSE,150,0.0,0.0,89,0.00,OVC,,0.00,0.0,WeatherDisplay:10.37,2013-06-14 04:11:00,
2013-06-14 05:16:00,47.3,44.2,29.80,SSE,150,0.0,0.0,89,0.00,OVC,,0.00,0.0,WeatherDisplay:10.37,2013-06-14 04:16:00,
2013-06-14 05:21:00,47.2,44.4,29.80,SE,139,0.0,0.0,90,0.00,OVC,,0.00,0.0,WeatherDisplay:10.37,2013-06-14 04:21:00,
2013-06-14 05:26:00,47.2,44.4,29.80,SE,139,1.2,0.0,90,0.00,OVC,,0.00,0.0,WeatherDisplay:10.37,2013-06-14 04:26:00,
2013-06-14 05:31:00,47.2,44.4,29.80,SE,134,1.2,1.2,90,0.00,OVC,,0.00,0.0,WeatherDisplay:10.37,2013-06-14 04:31:00,
2013-06-14 05:36:00,47.3,44.5,29.80,SE,129,0.0,0.0,90,0.00,OVC,,0.00,0.0,WeatherDisplay:10.37,2013-06-14 04:36:00,
2013-06-14 05:41:00,47.2,44.4,29.80,SE,130,0.0,0.0,90,0.00,OVC,,0.00,0.0,WeatherDisplay:10.37,2013-06-14 04:41:00,
2013-06-14 05:46:00,47.1,44.3,29.81,SE,130,0.0,0.0,90,0.00,OVC,,0.00,0.0,WeatherDisplay:10.37,2013-06-14 04:46:00,
2013-06-14 05:51:00,47.0,44.2,29.81,SE,129,0.0,0.0,90,0.00,OVC,,0.00,0.0,WeatherDisplay:10.37,2013-06-14 04:51:00,
2013-06-14 05:56:00,46.9,44.1,29.81,SE,129,0.0,0.0,90,0.00,OVC,,0.00,0.0,WeatherDisplay:10.37,2013-06-14 04:56:00,
2013-06-14 06:01:00,46.9,44.4,29.81,SE,129,0.0,0.0,91,0.00,OVC,,0.00,0.0,WeatherDisplay:10.37,2013-06-14 05:01:00,
2013-06-14 06:06:00,46.9,44.4,29.81,SE,130,0.0,0.0,91,0.00,OVC,,0.00,0.0,WeatherDisplay:10.37,2013-06-14 05:06:00,
2013-06-14 06:11:00,47.0,44.5,29.81,SE,130,0.0,0.0,91,0.00,OVC,,0.00,0.0,WeatherDisplay:10.37,2013-06-14 05:11:00,
2013-06-14 06:16:00,47.0,44.5,29.81,SE,131,0.0,0.0,91,0.00,OVC,,0.00,0.0,WeatherDisplay:10.37,2013-06-14 05:16:00,
2013-06-14 06:21:00,47.1,44.6,29.81,SE,131,1.2,0.0,91,0.00,OVC,,0.00,0.0,WeatherDisplay:10.37,2013-06-14 05:21:00,
2013-06-14 06:26:00,47.3,44.8,29.81,SE,131,0.0,0.0,91,0.00,OVC,,0.00,0.0,WeatherDisplay:10.37,2013-06-14 05:26:00,
2013-06-14 06:31:00,47.6,45.1,29.81,SE,131,1.2,0.0,91,0.00,OVC,,0.00,0.0,WeatherDisplay:10.37,2013-06-14 05:31:00,
2013-06-14 06:36:00,47.8,45.3,29.81,ESE,120,0.0,0.0,91,0.00,OVC,,0.00,0.0,WeatherDisplay:10.37,2013-06-14 05:36:00,
2013-06-14 06:41:00,48.0,45.5,29.81,ESE,120,0.0,0.0,91,0.00,OVC,,0.00,0.0,WeatherDisplay:10.37,2013-06-14 05:41:00,
2013-06-14 06:46:00,48.2,45.4,29.81,SE,136,2.3,2.3,90,0.00,OVC,,0.00,0.0,WeatherDisplay:10.37,2013-06-14 05:46:00,
2013-06-14 06:51:00,48.5,45.7,29.81,ESE,108,2.0,2.0,90,0.00,OVC,,0.00,0.0,WeatherDisplay:10.37,2013-06-14 05:51:00,
2013-06-14 06:56:00,49.0,46.2,29.81,ESE,103,1.2,0.0,90,0.00,OVC,,0.00,0.0,WeatherDisplay:10.37,2013-06-14 05:56:00,
2013-06-14 07:01:00,49.5,46.4,29.81,ESE,109,1.2,0.0,89,0.00,OVC,,0.00,0.0,WeatherDisplay:10.37,2013-06-14 06:01:00,
2013-06-14 07:06:00,49.8,46.4,29.81,ESE,111,0.0,0.0,88,0.00,OVC,,0.00,0.0,WeatherDisplay:10.37,2013-06-14 06:06:00,
2013-06-14 07:11:00,50.0,46.6,29.81,ESE,114,1.2,1.2,88,0.00,OVC,,0.00,0.0,WeatherDisplay:10.37,2013-06-14 06:11:00,
2013-06-14 07:16:00,50.2,46.8,29.81,ESE,114,0.0,0.0,88,0.00,OVC,,0.00,0.0,WeatherDisplay:10.37,2013-06-14 06:16:00,
2013-06-14 07:21:00,50.4,46.7,29.81,ESE,114,0.0,0.0,87,0.00,OVC,,0.00,0.0,WeatherDisplay:10.37,2013-06-14 06:21:00,
2013-06-14 07:26:00,50.5,46.8,29.81,ESE,114,0.0,0.0,87,0.00,OVC,,0.00,0.0,WeatherDisplay:10.37,2013-06-14 06:26:00,
2013-06-14 07:31:00,50.6,46.9,29.81,ESE,114,0.0,0.0,87,0.00,OVC,,0.00,0.0,WeatherDisplay:10.37,2013-06-14 06:31:00,
2013-06-14 07:36:00,50.8,47.1,29.81,SSE,158,2.3,2.3,87,0.00,OVC,,0.00,0.0,WeatherDisplay:10.37,2013-06-14 06:36:00,
2013-06-14 07:41:00,51.0,47.3,29.81,SSW,208,1.2,0.0,87,0.00,OVC,,0.00,0.0,WeatherDisplay:10.37,2013-06-14 06:41:00,
2013-06-14 07:46:00,51.2,47.5,29.81,West,260,1.2,1.2,87,0.00,OVC,,0.00,0.0,WeatherDisplay:10.37,2013-06-14 06:46:00,
2013-06-14 07:51:00,51.6,47.5,29.81,ESE,119,0.0,0.7,86,0.00,OVC,,0.00,0.0,WeatherDisplay:10.37,2013-06-14 06:51:00,
2013-06-14 07:56:00,52.1,48.0,29.81,SE,139,1.2,0.0,86,0.00,OVC,,0.00,0.0,WeatherDisplay:10.37,2013-06-14 06:56:00,
2013-06-14 08:01:00,52.5,47.8,29.81,ESE,110,3.5,3.5,84,0.00,OVC,,0.00,0.0,WeatherDisplay:10.37,2013-06-14 07:01:00,
2013-06-14 08:06:00,52.7,47.4,29.81,ESE,115,3.5,3.5,82,0.00,OVC,,0.00,0.0,WeatherDisplay:10.37,2013-06-14 07:06:00,
2013-06-14 08:12:00,53.1,48.1,29.80,SE,130,1.2,0.0,83,0.00,OVC,,0.00,0.0,WeatherDisplay:10.37,2013-06-14 07:12:00,
2013-06-14 08:17:00,53.3,47.3,29.81,SE,131,3.5,3.5,80,0.00,OVC,,0.00,0.0,WeatherDisplay:10.37,2013-06-14 07:17:00,
2013-06-14 08:22:00,53.4,47.4,29.81,East,99,2.3,2.3,80,0.00,OVC,,0.00,0.0,WeatherDisplay:10.37,2013-06-14 07:22:00,
2013-06-14 08:27:00,53.5,48.1,29.80,ESE,114,1.0,1.0,82,0.00,OVC,,0.00,0.0,WeatherDisplay:10.37,2013-06-14 07:27:00,
2013-06-14 08:32:00,53.9,48.2,29.80,SE,136,3.5,3.5,81,0.00,FEW,OVC,0.00,0.0,WeatherDisplay:10.37,2013-06-14 07:32:00,
2013-06-14 08:37:00,54.2,48.2,29.80,SE,137,0.0,0.0,80,0.00,FEW,OVC,0.00,0.0,WeatherDisplay:10.37,2013-06-14 07:37:00,
2013-06-14 08:42:00,54.6,48.9,29.80,WNW,300,2.3,2.3,81,0.00,FEW,OVC,0.00,0.0,WeatherDisplay:10.37,2013-06-14 07:42:00,
2013-06-14 08:47:00,54.7,48.3,29.81,SE,142,3.5,3.5,79,0.00,FEW,OVC,0.00,0.0,WeatherDisplay:10.37,2013-06-14 07:47:00,
2013-06-14 08:52:00,54.8,48.4,29.80,SE,143,0.0,0.0,79,0.00,FEW,OVC,0.00,0.0,WeatherDisplay:10.37,2013-06-14 07:52:00,
2013-06-14 08:57:00,54.9,48.5,29.81,SE,139,1.2,1.2,79,0.00,FEW,OVC,0.00,0.0,WeatherDisplay:10.37,2013-06-14 07:57:00,
2013-06-14 09:02:00,54.9,47.8,29.81,WSW,248,10.4,10.4,77,0.00,SCT,OVC,0.00,0.0,WeatherDisplay:10.37,2013-06-14 08:02:00,
2013-06-14 09:07:00,55.0,47.9,29.80,SSE,153,5.8,5.8,77,0.00,SCT,OVC,0.00,0.0,WeatherDisplay:10.37,2013-06-14 08:07:00,
2013-06-14 09:12:00,55.1,47.3,29.80,SSE,150,3.5,3.5,75,0.00,SCT,OVC,0.00,0.0,WeatherDisplay:10.37,2013-06-14 08:12:00,
2013-06-14 09:17:00,55.1,47.3,29.80,SSE,160,2.3,2.3,75,0.00,SCT,OVC,0.00,0.0,WeatherDisplay:10.37,2013-06-14 08:17:00,
2013-06-14 09:22:00,55.2,48.1,29.80,East,86,1.2,1.2,77,0.00,SCT,OVC,0.00,0.0,WeatherDisplay:10.37,2013-06-14 08:22:00,
2013-06-14 09:27:00,55.4,48.7,29.80,SSE,153,1.2,1.2,78,0.00,SCT,OVC,0.00,0.0,WeatherDisplay:10.37,2013-06-14 08:27:00,
2013-06-14 09:32:00,55.6,48.2,29.80,SE,135,0.0,0.0,76,0.00,FEW,OVC,0.00,0.0,WeatherDisplay:10.37,2013-06-14 08:32:00,
2013-06-14 09:37:00,55.9,48.4,29.80,ESE,117,1.2,1.2,76,0.00,FEW,OVC,0.00,0.0,WeatherDisplay:10.37,2013-06-14 08:37:00,
2013-06-14 09:42:00,56.1,47.9,29.80,SSE,149,3.5,3.5,74,0.00,FEW,OVC,0.00,0.0,WeatherDisplay:10.37,2013-06-14 08:42:00,
2013-06-14 09:47:00,56.3,48.1,29.80,NW,307,0.0,0.0,74,0.00,FEW,OVC,0.00,0.0,WeatherDisplay:10.37,2013-06-14 08:47:00,
2013-06-14 09:52:00,56.6,48.4,29.80,SE,144,1.2,1.2,74,0.00,FEW,OVC,0.00,0.0,WeatherDisplay:10.37,2013-06-14 08:52:00,
2013-06-14 09:57:00,56.8,48.2,29.80,SE,144,3.0,3.0,73,0.00,FEW,OVC,0.00,0.0,WeatherDisplay:10.37,2013-06-14 08:57:00,
2013-06-14 10:02:00,57.2,47.9,29.80,SSE,151,4.6,4.6,71,0.00,FEW,OVC,0.00,0.0,WeatherDisplay:10.37,2013-06-14 09:02:00,
2013-06-14 10:07:00,57.8,47.3,29.79,SE,136,2.3,2.3,68,0.00,FEW,OVC,0.00,0.0,WeatherDisplay:10.37,2013-06-14 09:07:00,
2013-06-14 10:12:00,58.2,48.1,29.79,SW,221,3.5,3.5,69,0.00,FEW,OVC,0.00,0.0,WeatherDisplay:10.37,2013-06-14 09:12:00,
2013-06-14 10:17:00,58.4,47.1,29.79,SSW,195,3.5,3.5,66,0.00,FEW,OVC,0.00,0.0,WeatherDisplay:10.37,2013-06-14 09:17:00,
2013-06-14 10:22:00,58.4,47.1,29.79,SE,127,3.5,3.5,66,0.00,FEW,OVC,0.00,0.0,WeatherDisplay:10.37,2013-06-14 09:22:00,
2013-06-14 10:27:00,58.5,48.0,29.79,SSE,156,2.3,2.3,68,0.00,FEW,OVC,0.00,0.0,WeatherDisplay:10.37,2013-06-14 09:27:00,
2013-06-14 10:32:00,58.5,47.6,29.79,SSE,167,3.5,3.5,67,0.00,BKN,OVC,0.00,0.0,WeatherDisplay:10.37,2013-06-14 09:32:00,
2013-06-14 10:37:00,58.6,46.9,29.79,SE,129,3.5,3.5,65,0.00,BKN,OVC,0.00,0.0,WeatherDisplay:10.37,2013-06-14 09:37:00,
2013-06-14 10:42:00,58.9,48.7,29.79,SE,134,1.0,0.0,69,0.00,BKN,OVC,0.00,0.0,WeatherDisplay:10.37,2013-06-14 09:42:00,
2013-06-14 10:47:00,58.9,48.4,29.79,ESE,122,1.2,1.2,68,0.00,BKN,OVC,0.00,0.0,WeatherDisplay:10.37,2013-06-14 09:47:00,
2013-06-14 10:52:00,59.0,48.4,29.79,South,190,4.6,4.6,68,0.00,BKN,OVC,0.00,0.0,WeatherDisplay:10.37,2013-06-14 09:52:00,
2013-06-14 10:57:00,59.0,48.8,29.79,SW,221,2.0,2.0,69,0.00,BKN,OVC,0.00,0.0,WeatherDisplay:10.37,2013-06-14 09:57:00,
2013-06-14 11:02:00,58.7,47.8,29.79,South,170,2.3,2.3,67,0.00,SCT,OVC,0.00,0.0,WeatherDisplay:10.37,2013-06-14 10:02:00,
2013-06-14 11:07:00,58.5,47.6,29.79,SSE,167,3.5,3.5,67,0.00,SCT,OVC,0.00,0.0,WeatherDisplay:10.37,2013-06-14 10:07:00,
2013-06-14 11:12:00,58.4,47.5,29.79,SE,146,3.5,3.5,67,0.00,SCT,OVC,0.00,0.0,WeatherDisplay:10.37,2013-06-14 10:12:00,
2013-06-14 11:17:00,58.2,47.7,29.79,SE,140,2.3,2.3,68,0.00,SCT,OVC,0.00,0.0,WeatherDisplay:10.37,2013-06-14 10:17:00,
2013-06-14 11:22:00,58.3,47.4,29.79,SSE,149,4.6,4.6,67,0.00,SCT,OVC,0.00,0.0,WeatherDisplay:10.37,2013-06-14 10:22:00,
2013-06-14 11:27:00,58.2,47.7,29.79,ESE,109,4.6,4.6,68,0.00,SCT,OVC,0.00,0.0,WeatherDisplay:10.37,2013-06-14 10:27:00,
2013-06-14 11:32:00,58.1,47.6,29.79,SSW,201,5.0,5.0,68,0.00,SCT,OVC,0.00,0.0,WeatherDisplay:10.37,2013-06-14 10:32:00,
2013-06-14 11:37:00,58.2,48.1,29.79,SSE,156,2.3,2.3,69,0.00,SCT,OVC,0.00,0.0,WeatherDisplay:10.37,2013-06-14 10:37:00,
2013-06-14 11:42:00,58.2,48.5,29.78,SSW,210,2.0,2.0,70,0.00,SCT,OVC,0.00,0.0,WeatherDisplay:10.37,2013-06-14 10:42:00,
2013-06-14 11:47:00,58.4,48.7,29.78,SW,226,1.2,1.2,70,0.00,SCT,OVC,0.00,0.0,WeatherDisplay:10.37,2013-06-14 10:47:00,
2013-06-14 11:52:00,58.9,48.7,29.78,SE,136,3.5,3.5,69,0.00,SCT,OVC,0.00,0.0,WeatherDisplay:10.37,2013-06-14 10:52:00,
2013-06-14 11:57:00,59.5,49.3,29.78,SSE,159,3.5,3.5,69,0.00,SCT,OVC,0.00,0.0,WeatherDisplay:10.37,2013-06-14 10:57:00,
2013-06-14 12:02:00,60.2,50.0,29.78,East,82,3.0,3.0,69,0.00,SCT,OVC,0.00,0.0,WeatherDisplay:10.37,2013-06-14 11:02:00,
2013-06-14 12:07:00,60.5,49.1,29.78,WSW,255,2.3,2.3,66,0.00,SCT,OVC,0.00,0.0,WeatherDisplay:10.37,2013-06-14 11:07:00,
2013-06-14 12:12:00,60.5,49.1,29.78,SE,124,5.0,5.0,66,0.00,SCT,OVC,0.00,0.0,WeatherDisplay:10.37,2013-06-14 11:12:00,
2013-06-14 12:17:00,60.4,49.0,29.77,SE,143,3.5,3.5,66,0.00,SCT,OVC,0.00,0.0,WeatherDisplay:10.37,2013-06-14 11:17:00,
2013-06-14 12:22:00,60.3,49.3,29.77,ESE,117,1.2,0.0,67,0.00,SCT,OVC,0.00,0.0,WeatherDisplay:10.37,2013-06-14 11:22:00,
2013-06-14 12:27:00,60.0,49.0,29.77,SE,128,2.3,2.3,67,0.00,SCT,OVC,0.00,0.0,WeatherDisplay:10.37,2013-06-14 11:27:00,
2013-06-14 12:32:00,59.9,48.9,29.77,ESE,117,4.0,4.0,67,0.00,SCT,OVC,0.00,0.0,WeatherDisplay:10.37,2013-06-14 11:32:00,
2013-06-14 12:37:00,59.8,48.8,29.77,ESE,117,3.5,3.5,67,0.00,SCT,OVC,0.00,0.0,WeatherDisplay:10.37,2013-06-14 11:37:00,
2013-06-14 12:42:00,60.1,49.5,29.77,East,98,8.1,8.1,68,0.00,SCT,OVC,0.00,0.0,WeatherDisplay:10.37,2013-06-14 11:42:00,
2013-06-14 12:47:00,60.6,49.6,29.76,SE,134,1.2,1.2,67,0.00,FEW,OVC,0.00,0.0,WeatherDisplay:10.37,2013-06-14 11:47:00,
2013-06-14 12:52:00,60.8,49.4,29.76,SSE,162,2.3,2.3,66,0.00,FEW,OVC,0.00,0.0,WeatherDisplay:10.37,2013-06-14 11:52:00,
2013-06-14 12:57:00,60.9,49.9,29.76,East,91,0.0,0.0,67,0.00,FEW,OVC,0.00,0.0,WeatherDisplay:10.37,2013-06-14 11:57:00,
2013-06-14 13:02:00,60.8,49.8,29.76,ESE,114,2.3,2.3,67,0.00,FEW,OVC,0.00,0.0,WeatherDisplay:10.37,2013-06-14 12:02:00,
2013-06-14 13:07:00,60.3,48.9,29.76,SE,138,1.2,1.2,66,0.00,FEW,OVC,0.00,0.0,WeatherDisplay:10.37,2013-06-14 12:07:00,
2013-06-14 13:12:00,60.0,49.4,29.76,ESE,119,1.2,1.2,68,0.00,FEW,OVC,0.00,0.0,WeatherDisplay:10.37,2013-06-14 12:12:00,
2013-06-14 13:17:00,60.3,50.5,29.75,SE,131,0.0,0.0,70,0.00,FEW,OVC,0.00,0.0,WeatherDisplay:10.37,2013-06-14 12:17:00,
2013-06-14 13:22:00,62.0,51.7,29.75,NNW,342,2.3,2.3,69,0.00,FEW,OVC,0.00,0.0,WeatherDisplay:10.37,2013-06-14 12:22:00,
2013-06-14 13:27:00,63.3,50.9,29.75,SE,138,4.6,4.6,64,0.00,FEW,OVC,0.00,0.0,WeatherDisplay:10.37,2013-06-14 12:27:00,
2013-06-14 13:32:00,63.2,50.8,29.75,ENE,65,1.2,0.0,64,0.00,SCT,OVC,0.00,0.0,WeatherDisplay:10.37,2013-06-14 12:32:00,
2013-06-14 13:37:00,62.9,49.2,29.75,SSE,165,3.5,3.5,61,0.00,SCT,OVC,0.00,0.0,WeatherDisplay:10.37,2013-06-14 12:37:00,
2013-06-14 13:42:00,63.1,50.3,29.74,ESE,105,3.5,3.5,63,0.00,SCT,OVC,0.00,0.0,WeatherDisplay:10.37,2013-06-14 12:42:00,
2013-06-14 13:47:00,63.1,50.3,29.74,ESE,102,3.5,3.5,63,0.00,SCT,OVC,0.00,0.0,WeatherDisplay:10.37,2013-06-14 12:47:00,
2013-06-14 13:52:00,63.7,51.7,29.74,SE,141,6.0,6.0,65,0.00,SCT,OVC,0.00,0.0,WeatherDisplay:10.37,2013-06-14 12:52:00,
2013-06-14 13:57:00,64.8,51.9,29.74,SSE,148,3.5,3.5,63,0.00,SCT,OVC,0.00,0.0,WeatherDisplay:10.37,2013-06-14 12:57:00,
2013-06-14 14:02:00,64.9,50.2,29.74,ESE,108,2.3,2.3,59,0.00,SCT,OVC,0.00,0.0,WeatherDisplay:10.37,2013-06-14 13:02:00,
2013-06-14 14:07:00,64.4,48.8,29.74,SSW,207,3.5,3.5,57,0.00,SCT,OVC,0.00,0.0,WeatherDisplay:10.37,2013-06-14 13:07:00,
2013-06-14 14:13:00,63.9,49.7,29.73,SSE,155,2.3,0.0,60,0.00,SCT,OVC,0.00,0.0,WeatherDisplay:10.37,2013-06-14 13:13:00,
2013-06-14 14:18:00,64.0,48.9,29.73,SSW,204,3.5,3.5,58,0.00,SCT,OVC,0.00,0.0,WeatherDisplay:10.37,2013-06-14 13:18:00,
2013-06-14 14:23:00,64.1,49.0,29.73,SE,141,3.5,3.5,58,0.00,SCT,OVC,0.00,0.0,WeatherDisplay:10.37,2013-06-14 13:23:00,
2013-06-14 14:28:00,64.4,50.7,29.73,ESE,107,1.2,1.2,61,0.00,SCT,OVC,0.00,0.0,WeatherDisplay:10.37,2013-06-14 13:28:00,
2013-06-14 14:33:00,64.2,49.1,29.73,SE,137,5.8,5.8,58,0.00,BKN,OVC,0.00,0.0,WeatherDisplay:10.37,2013-06-14 13:33:00,
2013-06-14 14:38:00,63.8,48.3,29.72,SE,133,5.8,5.8,57,0.00,BKN,OVC,0.00,0.0,WeatherDisplay:10.37,2013-06-14 13:38:00,
2013-06-14 14:43:00,63.5,48.5,29.72,South,179,2.3,2.3,58,0.00,BKN,OVC,0.00,0.0,WeatherDisplay:10.37,2013-06-14 13:43:00,
2013-06-14 14:48:00,63.6,49.5,29.72,SSW,210,2.3,2.3,60,0.00,BKN,OVC,0.00,0.0,WeatherDisplay:10.37,2013-06-14 13:48:00,
2013-06-14 14:53:00,63.9,48.8,29.72,East,101,4.6,4.6,58,0.00,BKN,OVC,0.00,0.0,WeatherDisplay:10.37,2013-06-14 13:53:00,
2013-06-14 14:58:00,63.9,47.9,29.72,SW,215,3.5,3.5,56,0.00,BKN,OVC,0.00,0.0,WeatherDisplay:10.37,2013-06-14 13:58:00,
2013-06-14 15:03:00,63.7,48.2,29.72,SE,129,3.5,3.5,57,0.00,BKN,OVC,0.00,0.0,WeatherDisplay:10.37,2013-06-14 14:03:00,
2013-06-14 15:08:00,63.4,49.3,29.72,SW,219,3.5,3.5,60,0.00,BKN,OVC,0.00,0.0,WeatherDisplay:10.37,2013-06-14 14:08:00,
2013-06-14 15:13:00,63.0,49.3,29.72,ESE,103,3.5,3.5,61,0.00,BKN,OVC,0.00,0.0,WeatherDisplay:10.37,2013-06-14 14:13:00,
2013-06-14 15:18:00,62.6,48.5,29.71,WSW,240,4.6,4.6,60,0.00,BKN,OVC,0.00,0.0,WeatherDisplay:10.37,2013-06-14 14:18:00,
2013-06-14 15:23:00,62.5,49.3,29.72,WSW,240,1.2,1.2,62,0.00,BKN,OVC,0.00,0.0,WeatherDisplay:10.37,2013-06-14 14:23:00,
2013-06-14 15:28:00,62.8,49.1,29.72,SE,145,5.8,5.8,61,0.00,BKN,OVC,0.00,0.0,WeatherDisplay:10.37,2013-06-14 14:28:00,
2013-06-14 15:33:00,63.0,49.3,29.72,East,94,5.8,5.8,61,0.00,BKN,OVC,0.00,0.0,WeatherDisplay:10.37,2013-06-14 14:33:00,
2013-06-14 15:38:00,62.9,49.7,29.71,ESE,113,6.0,6.0,62,0.00,BKN,OVC,0.00,0.0,WeatherDisplay:10.37,2013-06-14 14:38:00,
2013-06-14 15:43:00,62.7,49.9,29.71,ESE,119,5.8,5.8,63,0.00,BKN,OVC,0.00,0.0,WeatherDisplay:10.37,2013-06-14 14:43:00,
2013-06-14 15:48:00,62.4,49.6,29.71,SSW,203,4.6,4.6,63,0.00,BKN,OVC,0.00,0.0,WeatherDisplay:10.37,2013-06-14 14:48:00,
2013-06-14 15:53:00,62.4,50.5,29.71,ESE,122,2.3,2.3,65,0.00,BKN,OVC,0.00,0.0,WeatherDisplay:10.37,2013-06-14 14:53:00,
2013-06-14 15:58:00,62.8,50.4,29.71,SSE,160,8.1,8.1,64,0.00,BKN,OVC,0.00,0.0,WeatherDisplay:10.37,2013-06-14 14:58:00,
2013-06-14 16:03:00,63.2,51.2,29.70,East,101,1.2,0.0,65,0.00,BKN,OVC,0.00,0.0,WeatherDisplay:10.37,2013-06-14 15:03:00,
2013-06-14 16:08:00,63.4,49.7,29.70,SE,140,5.8,5.8,61,0.00,BKN,OVC,0.00,0.0,WeatherDisplay:10.37,2013-06-14 15:08:00,
2013-06-14 16:13:00,63.4,49.7,29.70,WSW,237,3.5,3.5,61,0.00,BKN,OVC,0.00,0.0,WeatherDisplay:10.37,2013-06-14 15:13:00,
2013-06-14 16:18:00,63.5,50.2,29.70,SSW,199,3.5,3.5,62,0.00,BKN,OVC,0.00,0.0,WeatherDisplay:10.37,2013-06-14 15:18:00,
2013-06-14 16:23:00,63.9,49.7,29.70,ESE,103,4.6,4.6,60,0.00,BKN,OVC,0.00,0.0,WeatherDisplay:10.37,2013-06-14 15:23:00,
2013-06-14 16:28:00,64.4,51.1,29.70,SW,236,5.8,5.8,62,0.00,BKN,OVC,0.00,0.0,WeatherDisplay:10.37,2013-06-14 15:28:00,
2013-06-14 16:33:00,64.5,49.8,29.70,North,5,9.2,9.2,59,0.00,BKN,OVC,0.00,0.0,WeatherDisplay:10.37,2013-06-14 15:33:00,
2013-06-14 16:38:00,65.6,52.2,29.69,SE,124,5.8,5.8,62,0.00,BKN,OVC,0.00,0.0,WeatherDisplay:10.37,2013-06-14 15:38:00,
2013-06-14 16:43:00,66.0,52.2,29.69,WSW,239,8.1,8.1,61,0.00,BKN,OVC,0.00,0.0,WeatherDisplay:10.37,2013-06-14 15:43:00,
2013-06-14 16:48:00,65.0,51.2,29.69,SSE,160,10.4,10.4,61,0.00,BKN,OVC,0.00,0.0,WeatherDisplay:10.37,2013-06-14 15:48:00,
2013-06-14 16:53:00,64.2,50.9,29.69,SE,141,6.9,6.9,62,0.00,BKN,OVC,0.00,0.0,WeatherDisplay:10.37,2013-06-14 15:53:00,
2013-06-14 16:58:00,62.6,51.9,29.71,SE,133,12.7,12.7,68,0.00,BKN,OVC,0.00,0.0,WeatherDisplay:10.37,2013-06-14 15:58:00,
2013-06-14 17:03:00,59.7,52.8,29.71,ESE,111,4.6,4.6,78,0.05,RA,OVC,0.05,0.0,WeatherDisplay:10.37,2013-06-14 16:03:00,
2013-06-14 17:08:00,58.2,52.7,29.71,SW,215,0.0,0.0,82,0.06,RA,OVC,0.06,0.0,WeatherDisplay:10.37,2013-06-14 16:08:00,
2013-06-14 17:13:00,57.6,52.8,29.71,SW,214,0.0,0.0,84,0.06,RA,OVC,0.06,0.0,WeatherDisplay:10.37,2013-06-14 16:13:00,
2013-06-14 17:18:00,57.4,52.6,29.71,SSE,159,0.0,0.0,84,0.06,BKN,OVC,0.06,0.0,WeatherDisplay:10.37,2013-06-14 16:18:00,
2013-06-14 17:23:00,57.3,53.1,29.70,SSE,160,0.0,0.0,86,0.06,BKN,OVC,0.06,0.0,WeatherDisplay:10.37,2013-06-14 16:23:00,
2013-06-14 17:28:00,57.6,53.8,29.70,South,179,0.0,0.0,87,0.06,BKN,OVC,0.06,0.0,WeatherDisplay:10.37,2013-06-14 16:28:00,
2013-06-14 17:33:00,58.0,54.2,29.70,SW,221,0.0,0.0,87,0.06,OVC,,0.06,0.0,WeatherDisplay:10.37,2013-06-14 16:33:00,
2013-06-14 17:38:00,58.0,53.8,29.70,SW,231,0.0,0.0,86,0.06,OVC,,0.06,0.0,WeatherDisplay:10.37,2013-06-14 16:38:00,
2013-06-14 17:43:00,58.2,54.0,29.69,SW,231,1.2,1.2,86,0.06,OVC,,0.06,0.0,WeatherDisplay:10.37,2013-06-14 16:43:00,
2013-06-14 17:48:00,58.6,54.4,29.69,West,278,1.0,1.0,86,0.06,OVC,,0.06,0.0,WeatherDisplay:10.37,2013-06-14 16:48:00,
2013-06-14 17:53:00,58.8,54.0,29.69,SW,235,1.2,1.2,84,0.06,OVC,,0.06,0.0,WeatherDisplay:10.37,2013-06-14 16:53:00,
2013-06-14 17:58:00,59.0,54.2,29.69,SW,225,1.2,0.0,84,0.06,OVC,,0.06,0.0,WeatherDisplay:10.37,2013-06-14 16:58:00,
2013-06-14 18:03:00,59.4,54.9,29.69,SW,229,0.0,0.0,85,0.01,SCT,OVC,0.06,0.0,WeatherDisplay:10.37,2013-06-14 17:03:00,
2013-06-14 18:08:00,59.5,54.0,29.69,SE,134,2.3,2.3,82,0.00,SCT,OVC,0.06,0.0,WeatherDisplay:10.37,2013-06-14 17:08:00,
2013-06-14 18:13:00,59.5,53.0,29.69,ESE,112,3.5,3.5,79,0.00,SCT,OVC,0.06,0.0,WeatherDisplay:10.37,2013-06-14 17:13:00,
2013-06-14 18:18:00,59.6,52.4,29.69,SSW,211,2.3,2.3,77,0.00,SCT,OVC,0.06,0.0,WeatherDisplay:10.37,2013-06-14 17:18:00,
2013-06-14 18:23:00,59.5,51.6,29.69,East,81,9.2,9.2,75,0.00,SCT,OVC,0.06,0.0,WeatherDisplay:10.37,2013-06-14 17:23:00,
2013-06-14 18:28:00,59.4,51.1,29.69,East,97,5.8,5.8,74,0.00,SCT,OVC,0.06,0.0,WeatherDisplay:10.37,2013-06-14 17:28:00,
2013-06-14 18:33:00,59.3,51.4,29.69,SSE,162,4.6,4.6,75,0.00,SCT,OVC,0.06,0.0,WeatherDisplay:10.37,2013-06-14 17:33:00,
2013-06-14 18:38:00,59.1,51.9,29.69,SSE,162,3.5,3.5,77,0.00,SCT,OVC,0.06,0.0,WeatherDisplay:10.37,2013-06-14 17:38:00,
2013-06-14 18:43:00,58.8,51.6,29.69,SW,215,5.8,5.8,77,0.00,SCT,OVC,0.06,0.0,WeatherDisplay:10.37,2013-06-14 17:43:00,
2013-06-14 18:48:00,58.6,51.1,29.69,ESE,113,4.6,4.6,76,0.00,SCT,OVC,0.06,0.0,WeatherDisplay:10.37,2013-06-14 17:48:00,
2013-06-14 18:53:00,58.6,51.4,29.69,West,264,4.6,4.6,77,0.00,SCT,OVC,0.06,0.0,WeatherDisplay:10.37,2013-06-14 17:53:00,
2013-06-14 18:58:00,58.5,51.3,29.69,SSW,208,2.3,2.3,77,0.00,SCT,OVC,0.06,0.0,WeatherDisplay:10.37,2013-06-14 17:58:00,
2013-06-14 19:03:00,58.5,51.7,29.68,ESE,110,4.0,4.0,78,0.00,BKN,OVC,0.06,0.0,WeatherDisplay:10.37,2013-06-14 18:03:00,
2013-06-14 19:08:00,58.5,51.3,29.68,SSE,155,10.4,10.4,77,0.00,BKN,OVC,0.06,0.0,WeatherDisplay:10.37,2013-06-14 18:08:00,
2013-06-14 19:13:00,58.4,51.2,29.68,East,91,3.5,3.5,77,0.00,BKN,OVC,0.06,0.0,WeatherDisplay:10.37,2013-06-14 18:13:00,
2013-06-14 19:18:00,58.3,51.1,29.68,WSW,245,8.1,8.1,77,0.00,BKN,OVC,0.06,0.0,WeatherDisplay:10.37,2013-06-14 18:18:00,
2013-06-14 19:23:00,58.2,51.4,29.68,WSW,239,9.2,9.2,78,0.00,BKN,OVC,0.06,0.0,WeatherDisplay:10.37,2013-06-14 18:23:00,
2013-06-14 19:29:00,57.7,51.2,29.68,ESE,120,4.6,4.6,79,0.01,RA,OVC,0.06,0.0,WeatherDisplay:10.37,2013-06-14 18:29:00,
2013-06-14 19:34:00,57.2,51.8,29.68,SE,127,3.0,3.0,82,0.01,RA,OVC,0.06,0.0,WeatherDisplay:10.37,2013-06-14 18:34:00,
2013-06-14 19:39:00,57.0,51.6,29.68,ESE,113,2.3,2.3,82,0.01,SCT,OVC,0.06,0.0,WeatherDisplay:10.37,2013-06-14 18:39:00,
2013-06-14 19:44:00,56.9,51.5,29.68,East,91,8.1,8.1,82,0.01,SCT,OVC,0.06,0.0,WeatherDisplay:10.37,2013-06-14 18:44:00,
2013-06-14 19:49:00,57.0,51.6,29.68,East,101,1.0,0.0,82,0.01,SCT,OVC,0.06,0.0,WeatherDisplay:10.37,2013-06-14 18:49:00,
2013-06-14 19:54:00,57.0,51.9,29.68,SSE,160,0.0,0.0,83,0.01,SCT,OVC,0.06,0.0,WeatherDisplay:10.37,2013-06-14 18:54:00,
2013-06-14 19:59:00,57.1,51.7,29.68,ESE,122,1.2,1.2,82,0.01,SCT,OVC,0.06,0.0,WeatherDisplay:10.37,2013-06-14 18:59:00,
2013-06-14 20:04:00,57.3,51.2,29.68,SSE,152,2.0,2.0,80,0.01,OVC,,0.06,0.0,WeatherDisplay:10.37,2013-06-14 19:04:00,
2013-06-14 20:09:00,57.4,50.6,29.68,ENE,61,4.0,4.0,78,0.01,OVC,,0.06,0.0,WeatherDisplay:10.37,2013-06-14 19:09:00,
2013-06-14 20:14:00,57.6,49.7,29.68,SE,130,3.5,3.5,75,0.01,OVC,,0.06,0.0,WeatherDisplay:10.37,2013-06-14 19:14:00,
2013-06-14 20:19:00,57.5,49.3,29.67,SSE,148,1.0,1.0,74,0.01,OVC,,0.06,0.0,WeatherDisplay:10.37,2013-06-14 19:19:00,
2013-06-14 20:23:00,57.5,48.9,29.67,SW,235,2.3,2.3,73,0.01,OVC,,0.06,0.0,WeatherDisplay:10.37,2013-06-14 19:23:00,
2013-06-14 20:29:00,57.4,49.5,29.67,East,95,1.2,1.2,75,0.00,OVC,,0.06,0.0,WeatherDisplay:10.37,2013-06-14 19:29:00,
2013-06-14 20:34:00,57.4,49.5,29.67,SSE,148,3.5,3.5,75,0.00,FEW,OVC,0.06,0.0,WeatherDisplay:10.37,2013-06-14 19:34:00,
2013-06-14 20:39:00,57.3,49.4,29.67,ESE,120,1.2,1.2,75,0.00,FEW,OVC,0.06,0.0,WeatherDisplay:10.37,2013-06-14 19:39:00,
2013-06-14 20:44:00,57.2,49.7,29.67,SW,236,0.0,0.0,76,0.00,FEW,OVC,0.06,0.0,WeatherDisplay:10.37,2013-06-14 19:44:00,
2013-06-14 20:49:00,57.1,49.6,29.67,ESE,113,1.2,1.2,76,0.00,FEW,OVC,0.06,0.0,WeatherDisplay:10.37,2013-06-14 19:49:00,
2013-06-14 20:54:00,56.9,49.4,29.67,ESE,121,2.3,2.3,76,0.00,FEW,OVC,0.06,0.0,WeatherDisplay:10.37,2013-06-14 19:54:00,
2013-06-14 20:59:00,56.7,48.5,29.66,SW,218,2.3,2.3,74,0.00,FEW,OVC,0.06,0.0,WeatherDisplay:10.37,2013-06-14 19:59:00,
2013-06-14 21:04:00,56.5,48.7,29.66,ESE,116,1.2,1.2,75,0.00,FEW,OVC,0.06,0.0,WeatherDisplay:10.37,2013-06-14 20:04:00,
2013-06-14 21:09:00,56.3,48.1,29.67,SE,133,2.3,2.3,74,0.00,FEW,OVC,0.06,0.0,WeatherDisplay:10.37,2013-06-14 20:09:00,
2013-06-14 21:14:00,56.2,47.7,29.66,SE,145,3.5,3.5,73,0.00,FEW,OVC,0.06,0.0,WeatherDisplay:10.37,2013-06-14 20:14:00,
2013-06-14 21:19:00,56.1,47.2,29.66,SSE,156,3.5,3.5,72,0.00,FEW,OVC,0.06,0.0,WeatherDisplay:10.37,2013-06-14 20:19:00,
2013-06-14 21:24:00,56.1,47.2,29.66,ESE,109,2.3,2.3,72,0.00,FEW,OVC,0.06,0.0,WeatherDisplay:10.37,2013-06-14 20:24:00,
2013-06-14 21:29:00,56.0,47.1,29.66,SE,132,0.0,0.0,72,0.00,FEW,OVC,0.06,0.0,WeatherDisplay:10.37,2013-06-14 20:29:00,
2013-06-14 21:34:00,55.9,47.0,29.66,SW,222,2.3,2.3,72,0.00,FEW,OVC,0.06,0.0,WeatherDisplay:10.37,2013-06-14 20:34:00,
2013-06-14 21:39:00,55.8,46.9,29.66,ESE,117,3.5,3.5,72,0.00,FEW,OVC,0.06,0.0,WeatherDisplay:10.37,2013-06-14 20:39:00,
2013-06-14 21:44:00,55.8,46.5,29.66,SW,221,2.3,2.3,71,0.00,FEW,OVC,0.06,0.0,WeatherDisplay:10.37,2013-06-14 20:44:00,
2013-06-14 21:49:00,55.7,47.5,29.66,SE,145,0.0,0.0,74,0.01,RA,OVC,0.07,0.0,WeatherDisplay:10.37,2013-06-14 20:49:00,
2013-06-14 21:54:00,55.5,48.1,29.65,SE,146,0.0,0.0,76,0.01,RA,OVC,0.07,0.0,WeatherDisplay:10.37,2013-06-14 20:54:00,
2013-06-14 21:59:00,55.2,48.1,29.65,SE,145,0.0,0.0,77,0.02,RA,OVC,0.08,0.0,WeatherDisplay:10.37,2013-06-14 20:59:00,
2013-06-14 22:04:00,55.0,48.6,29.65,SW,225,0.0,0.0,79,0.02,RA,OVC,0.08,0.0,WeatherDisplay:10.37,2013-06-14 21:04:00,
2013-06-14 22:09:00,54.7,48.6,29.65,SW,225,0.0,0.0,80,0.02,SCT,OVC,0.08,0.0,WeatherDisplay:10.37,2013-06-14 21:09:00,
2013-06-14 22:14:00,54.3,48.6,29.64,SW,225,0.0,0.0,81,0.02,SCT,OVC,0.08,0.0,WeatherDisplay:10.37,2013-06-14 21:14:00,
2013-06-14 22:19:00,53.9,48.9,29.64,SW,224,0.0,0.0,83,0.02,SCT,OVC,0.08,0.0,WeatherDisplay:10.37,2013-06-14 21:19:00,
2013-06-14 22:24:00,53.6,48.9,29.64,SW,225,0.0,0.0,84,0.02,SCT,OVC,0.08,0.0,WeatherDisplay:10.37,2013-06-14 21:24:00,
2013-06-14 22:29:00,53.3,48.9,29.64,SW,225,0.0,0.0,85,0.02,SCT,OVC,0.08,0.0,WeatherDisplay:10.37,2013-06-14 21:29:00,
2013-06-14 22:34:00,53.0,48.9,29.64,SW,225,0.0,0.0,86,0.02,-RA,OVC,0.08,0.0,WeatherDisplay:10.37,2013-06-14 21:34:00,
2013-06-14 22:39:00,52.8,48.4,29.64,SE,129,0.0,0.4,85,0.02,-RA,OVC,0.08,0.0,WeatherDisplay:10.37,2013-06-14 21:39:00,
2013-06-14 22:44:00,52.7,47.4,29.64,SE,139,3.5,3.5,82,0.02,-RA,OVC,0.09,0.0,WeatherDisplay:10.37,2013-06-14 21:44:00,
2013-06-14 22:49:00,52.6,46.9,29.63,SSE,152,4.6,4.6,81,0.02,-RA,OVC,0.09,0.0,WeatherDisplay:10.37,2013-06-14 21:49:00,
2013-06-14 22:54:00,52.4,46.4,29.63,SSW,195,1.2,1.2,80,0.02,-RA,OVC,0.09,0.0,WeatherDisplay:10.37,2013-06-14 21:54:00,
2013-06-14 22:59:00,52.2,46.5,29.63,SSE,149,0.0,0.0,81,0.02,-RA,OVC,0.10,0.0,WeatherDisplay:10.37,2013-06-14 21:59:00,
2013-06-14 23:04:00,52.0,47.0,29.63,ESE,109,1.2,1.2,83,0.03,RA,OVC,0.11,0.0,WeatherDisplay:10.37,2013-06-14 22:04:00,
2013-06-14 23:09:00,51.7,47.0,29.63,SW,232,0.0,0.0,84,0.03,RA,OVC,0.11,0.0,WeatherDisplay:10.37,2013-06-14 22:09:00,
2013-06-14 23:14:00,51.6,47.2,29.62,SE,128,1.2,0.0,85,0.04,RA,OVC,0.12,0.0,WeatherDisplay:10.37,2013-06-14 22:14:00,
2013-06-14 23:19:00,51.5,47.1,29.62,SE,129,0.0,0.0,85,0.04,RA,OVC,0.12,0.0,WeatherDisplay:10.37,2013-06-14 22:19:00,
2013-06-14 23:24:00,51.4,47.4,29.62,SE,129,0.0,0.0,86,0.05,RA,OVC,0.13,0.0,WeatherDisplay:10.37,2013-06-14 22:24:00,
2013-06-14 23:29:00,51.3,47.3,29.62,SE,129,0.0,0.0,86,0.06,RA,OVC,0.13,0.0,WeatherDisplay:10.37,2013-06-14 22:29:00,
2013-06-14 23:34:00,51.2,47.8,29.61,SE,129,0.0,0.0,88,0.06,RA,OVC,0.14,0.0,WeatherDisplay:10.37,2013-06-14 22:34:00,
2013-06-14 23:39:00,51.1,48.0,29.61,South,175,0.0,0.0,89,0.06,RA,OVC,0.14,0.0,WeatherDisplay:10.37,2013-06-14 22:39:00,
2013-06-14 23:44:00,51.0,48.2,29.60,SW,221,0.0,0.0,90,0.06,RA,OVC,0.15,0.0,WeatherDisplay:10.37,2013-06-14 22:44:00,
2013-06-14 23:49:00,50.9,48.1,29.60,SSE,160,0.0,0.0,90,0.06,RA,OVC,0.15,0.0,WeatherDisplay:10.37,2013-06-14 22:49:00,
2013-06-14 23:54:00,50.8,48.0,29.60,SSE,161,0.0,0.0,90,0.06,RA,OVC,0.16,0.0,WeatherDisplay:10.37,2013-06-14 22:54:00,
2013-06-14 23:59:00,50.7,48.2,29.59,SSW,205,0.0,0.0,91,0.06,RA,OVC,0.17,0.0,WeatherDisplay:10.37,2013-06-14 22:59:00,